Time;durP1;ratioP1;P1;durP2;ratioP2;P2;SDS_P1;SDS_P2;PMS_P1;PMS_P2;Temp;Humidity;BMP_temperature;BMP_pressure;BME280_temperature;BME280_humidity;BME280_pressure;Samples;Min_cycle;Max_cycle;Signal;HPM_P1;HPM_P2
2021/04/14 00:00:26;;;;;;;6.90;2.63;;;2.40;58.70;;;3.11;48.74;98766.81;4985231;28;20074;-61
2021/04/14 00:02:54;;;;;;;5.77;2.70;;;2.40;59.00;;;3.14;48.38;98766.66;4985225;28;20344;-62
2021/04/14 00:05:27;;;;;;;9.87;3.83;;;2.50;58.30;;;3.14;48.04;98764.00;4984561;28;20340;-62
2021/04/14 00:07:55;;;;;;;34.93;12.00;;;2.40;58.60;;;3.07;48.23;98760.03;4984723;28;20059;-62
2021/04/14 00:10:27;;;;;;;22.50;7.87;;;2.30;58.70;;;3.05;48.67;98758.44;4982114;28;20053;-62
2021/04/14 00:12:55;;;;;;;9.63;4.30;;;2.40;58.90;;;3.04;48.68;98762.81;4975194;28;20065;-62
2021/04/14 00:15:48;;;;;;;25.23;9.87;;;2.30;58.80;;;3.02;48.45;98758.59;4964357;28;20379;-62
2021/04/14 00:18:17;;;;;;;43.27;17.07;;;2.30;59.70;;;3.01;48.37;98749.00;4984502;28;20058;-63
2021/04/14 00:20:46;;;;;;;16.97;6.87;;;2.30;58.80;;;2.99;48.37;98740.38;4984949;28;20057;-62
2021/04/14 00:23:15;;;;;;;23.00;8.23;;;2.30;58.70;;;2.93;49.09;98749.44;4984221;28;20069;-62
2021/04/14 00:25:45;;;;;;;8.40;2.93;;;2.20;59.30;;;2.90;48.65;98747.81;4984663;28;20053;-62
2021/04/14 00:28:16;;;;;;;47.87;14.60;;;2.20;59.60;;;2.87;49.00;98755.03;4981461;28;20057;-62
2021/04/14 00:30:45;;;;;;;27.87;8.67;;;2.10;59.60;;;2.84;49.03;98748.16;4983942;28;20042;-62
2021/04/14 00:33:13;;;;;;;13.47;6.13;;;2.10;59.80;;;2.85;49.10;98756.91;4984682;28;20222;-62
2021/04/14 00:35:41;;;;;;;9.77;3.97;;;2.10;59.70;;;2.83;49.13;98742.97;4983420;28;20253;-62
2021/04/14 00:38:11;;;;;;;9.13;3.73;;;2.10;59.70;;;2.82;49.10;98749.19;4984056;28;20063;-62
2021/04/14 00:40:43;;;;;;;16.60;8.10;;;2.10;59.70;;;2.84;49.19;98744.69;4984277;28;20068;-61
2021/04/14 00:43:20;;;;;;;14.43;5.30;;;2.20;59.40;;;2.86;48.71;98748.09;4980915;28;20379;-61
2021/04/14 00:45:48;;;;;;;5.10;2.37;;;2.20;59.30;;;2.87;49.00;98752.41;4964991;29;20066;-61
2021/04/14 00:48:16;;;;;;;4.43;2.13;;;2.20;59.50;;;2.83;48.92;98745.63;4964579;29;20047;-61
2021/04/14 00:50:44;;;;;;;2.63;1.57;;;2.20;59.40;;;2.84;49.00;98744.69;4964850;29;20062;-61
2021/04/14 00:53:12;;;;;;;5.40;2.10;;;2.20;59.10;;;2.85;49.10;98744.63;4964981;29;20043;-61
2021/04/14 00:55:42;;;;;;;3.43;1.60;;;2.10;59.30;;;2.83;48.93;98741.22;4948054;29;20051;-62
2021/04/14 00:58:11;;;;;;;2.63;1.87;;;2.10;59.20;;;2.81;49.17;98736.97;4964105;29;20384;-61
2021/04/14 01:00:41;;;;;;;2.70;1.70;;;2.10;59.10;;;2.80;49.11;98736.13;4964447;29;20051;-61
2021/04/14 01:03:28;;;;;;;4.43;1.83;;;2.10;59.40;;;2.75;49.35;98739.03;4964760;29;20055;-62
2021/04/14 01:05:56;;;;;;;4.10;1.60;;;2.10;59.80;;;2.74;49.15;98733.84;4964780;29;20047;-61
2021/04/14 01:08:24;;;;;;;4.77;2.30;;;2.00;59.60;;;2.71;49.13;98739.25;4946620;29;20059;-61
2021/04/14 01:10:52;;;;;;;4.00;1.47;;;2.00;59.60;;;2.68;49.62;98735.03;4950481;28;20081;-61
2021/04/14 01:13:21;;;;;;;2.93;1.80;;;2.00;60.10;;;2.66;49.38;98738.69;4973834;28;20047;-61
2021/04/14 01:15:50;;;;;;;5.47;2.13;;;1.90;60.00;;;2.63;49.40;98731.78;4978402;28;20059;-61
2021/04/14 01:18:32;;;;;;;5.03;1.97;;;1.90;60.10;;;2.63;49.71;98729.16;4963096;28;20059;-61
2021/04/14 01:21:03;;;;;;;1.97;1.30;;;1.90;59.80;;;2.61;49.66;98724.94;4963827;29;20140;-61
2021/04/14 01:23:31;;;;;;;4.13;2.33;;;1.90;60.60;;;2.54;50.19;98722.66;4964476;29;20051;-61
2021/04/14 01:25:59;;;;;;;4.77;1.63;;;1.80;61.00;;;2.49;50.27;98722.03;4963963;29;20054;-62
2021/04/14 01:28:37;;;;;;;3.60;1.70;;;1.80;61.30;;;2.47;50.40;98723.06;4963979;29;20043;-62
2021/04/14 01:31:09;;;;;;;2.90;2.47;;;1.80;61.00;;;2.48;50.03;98720.38;4964236;29;20055;-62
2021/04/14 01:33:37;;;;;;;2.83;1.30;;;1.80;60.40;;;2.52;49.69;98724.50;4963575;29;20058;-62
2021/04/14 01:36:08;;;;;;;3.30;1.80;;;1.90;59.70;;;2.54;49.85;98727.91;4964037;29;20349;-62
2021/04/14 01:38:36;;;;;;;6.27;1.80;;;1.90;59.70;;;2.50;50.04;98726.38;4963194;29;20085;-62
2021/04/14 01:41:08;;;;;;;3.17;1.60;;;1.90;60.80;;;2.45;50.57;98719.69;4963343;29;20059;-62
2021/04/14 01:43:35;;;;;;;4.40;1.90;;;1.70;61.20;;;2.41;50.34;98723.41;4949285;29;20055;-62
2021/04/14 01:46:03;;;;;;;2.07;1.40;;;1.70;61.40;;;2.39;50.31;98722.66;4963876;29;20066;-62
2021/04/14 01:48:31;;;;;;;2.37;1.60;;;1.70;61.20;;;2.40;50.34;98727.78;4963545;29;20309;-63
2021/04/14 01:50:59;;;;;;;3.13;1.47;;;1.70;60.80;;;2.38;50.04;98719.16;4962625;29;20055;-62
2021/04/14 01:53:27;;;;;;;3.03;1.60;;;1.70;61.00;;;2.36;50.01;98727.13;4963987;29;20367;-61
2021/04/14 01:55:54;;;;;;;3.00;1.60;;;1.60;61.80;;;2.29;50.18;98720.50;4963712;29;20063;-61
2021/04/14 01:58:23;;;;;;;2.93;1.70;;;1.50;61.60;;;2.26;51.05;98720.66;4962656;29;20059;-63
2021/04/14 02:00:57;;;;;;;3.17;1.43;;;1.50;61.70;;;2.24;51.21;98721.69;4963342;28;20067;-62
2021/04/14 02:03:28;;;;;;;3.58;1.77;;;1.60;61.20;;;2.22;51.29;98721.75;4963663;29;20063;-61
2021/04/14 02:05:56;;;;;;;2.67;1.50;;;1.70;61.00;;;2.23;50.81;98725.22;4963532;29;20044;-63
2021/04/14 02:08:24;;;;;;;2.87;1.43;;;1.70;60.70;;;2.25;50.64;98715.47;4960800;29;20058;-62
2021/04/14 02:10:52;;;;;;;3.20;1.60;;;1.70;60.40;;;2.24;50.89;98719.06;4963803;29;20057;-62
2021/04/14 02:13:37;;;;;;;2.10;1.40;;;1.70;60.30;;;2.21;51.69;98720.06;4970144;28;20050;-62
2021/04/14 02:16:08;;;;;;;2.93;1.60;;;1.70;61.40;;;2.20;51.17;98721.00;4966977;28;20308;-62
2021/04/14 02:18:35;;;;;;;8.07;2.20;;;1.60;61.00;;;2.19;50.49;98713.19;4981882;28;20073;-62
2021/04/14 02:21:03;;;;;;;5.33;1.83;;;1.60;60.70;;;2.20;50.83;98718.38;4982776;28;20218;-62
2021/04/14 02:23:38;;;;;;;2.90;2.10;;;1.60;60.90;;;2.20;50.41;98709.66;4982121;28;20248;-62
2021/04/14 02:26:14;;;;;;;6.03;1.90;;;1.50;61.10;;;2.19;50.58;98706.19;4982638;28;20380;-62
2021/04/14 02:28:45;;;;;;;2.53;1.50;;;1.50;60.90;;;2.20;50.74;98707.03;4981457;28;20269;-62
2021/04/14 02:31:30;;;;;;;4.70;1.97;;;1.50;61.10;;;2.14;50.85;98708.19;4982519;28;20250;-62
2021/04/14 02:34:11;;;;;;;3.43;2.00;;;1.40;61.10;;;2.09;50.57;98707.59;4982643;28;20065;-63
2021/04/14 02:36:40;;;;;;;3.63;1.90;;;1.30;61.50;;;2.03;50.41;98703.50;4982088;28;20364;-62
2021/04/14 02:39:11;;;;;;;4.27;2.37;;;1.30;61.50;;;2.04;51.23;98704.38;4964961;28;20089;-62
2021/04/14 02:41:40;;;;;;;5.00;2.03;;;1.30;62.60;;;1.97;51.14;98707.31;4964655;28;20081;-62
2021/04/14 02:44:07;;;;;;;5.37;2.03;;;1.20;62.30;;;1.95;50.89;98697.81;4971407;28;20395;-62
2021/04/14 02:46:35;;;;;;;2.87;1.77;;;1.20;62.30;;;1.93;51.78;98695.25;4963060;29;20051;-62
2021/04/14 02:49:03;;;;;;;2.60;1.80;;;1.20;62.90;;;1.91;51.52;98697.13;4962599;29;20210;-62
2021/04/14 02:51:31;;;;;;;3.77;1.87;;;1.10;63.00;;;1.89;51.14;98700.78;4962430;29;20051;-62
2021/04/14 02:53:58;;;;;;;3.50;1.73;;;1.10;63.10;;;1.89;51.14;98693.72;4962591;29;20067;-62
2021/04/14 02:56:26;;;;;;;4.90;2.00;;;1.10;63.10;;;1.87;51.45;98692.97;4963308;29;20059;-62
2021/04/14 02:58:53;;;;;;;3.37;1.93;;;1.10;62.70;;;1.90;51.30;98689.31;4945468;29;20067;-62
2021/04/14 03:01:20;;;;;;;4.83;2.10;;;1.20;62.30;;;1.93;51.16;98686.53;4962974;29;20035;-61
2021/04/14 03:03:48;;;;;;;5.10;2.00;;;1.20;62.00;;;1.89;51.60;98680.59;4946150;29;20055;-62
2021/04/14 03:06:15;;;;;;;2.50;1.87;;;1.20;62.80;;;1.87;51.12;98687.72;4961845;29;20048;-62
2021/04/14 03:08:43;;;;;;;4.37;2.77;;;1.20;62.90;;;1.84;51.24;98682.63;4962004;29;20061;-61
2021/04/14 03:11:10;;;;;;;4.67;2.70;;;1.10;63.00;;;1.85;51.66;98688.72;4962571;29;20367;-62
2021/04/14 03:13:37;;;;;;;4.97;2.73;;;1.10;63.20;;;1.83;51.53;98678.31;4952151;28;20042;-62
2021/04/14 03:16:05;;;;;;;4.07;2.37;;;1.10;63.50;;;1.80;51.94;98678.44;4965567;28;20052;-62
2021/04/14 03:18:33;;;;;;;4.30;2.37;;;1.10;63.70;;;1.76;51.77;98675.16;4944929;29;20143;-64
2021/04/14 03:21:00;;;;;;;3.93;2.00;;;1.00;63.70;;;1.70;52.11;98672.84;4962801;29;20081;-61
2021/04/14 03:23:28;;;;;;;4.57;2.20;;;0.90;64.40;;;1.69;52.31;98670.31;4962839;29;20367;-62
2021/04/14 03:25:55;;;;;;;4.03;2.17;;;0.90;64.30;;;1.68;52.04;98666.81;4962027;29;20055;-61
2021/04/14 03:28:23;;;;;;;2.87;2.10;;;0.90;64.50;;;1.70;51.85;98670.22;4944875;29;20356;-62
2021/04/14 03:30:51;;;;;;;4.13;2.57;;;1.00;64.00;;;1.71;51.93;98671.94;4959573;29;20265;-61
2021/04/14 03:33:18;;;;;;;3.60;2.13;;;1.10;63.70;;;1.71;52.57;98669.31;4945184;29;20309;-63
2021/04/14 03:35:46;;;;;;;7.77;4.77;;;1.00;63.90;;;1.69;52.01;98665.91;4945247;29;20244;-62
2021/04/14 03:38:13;;;;;;;4.80;3.17;;;1.00;63.60;;;1.68;51.54;98663.34;4962387;29;20055;-62
2021/04/14 03:40:41;;;;;;;4.10;2.30;;;1.00;63.60;;;1.70;52.01;98670.22;4963760;28;20063;-62
2021/04/14 03:43:08;;;;;;;3.97;2.00;;;1.00;63.10;;;1.70;51.52;98662.34;4968513;28;20055;-62
2021/04/14 03:45:41;;;;;;;3.63;1.90;;;1.00;63.90;;;1.67;52.15;98667.78;4985487;28;20057;-62
2021/04/14 03:48:10;;;;;;;21.97;10.00;;;1.00;64.10;;;1.67;51.84;98666.94;4984484;28;20050;-62
2021/04/14 03:50:39;;;;;;;15.87;8.80;;;1.00;64.30;;;1.67;51.79;98666.94;4985306;28;20061;-62
2021/04/14 03:53:14;;;;;;;6.47;4.10;;;1.00;63.50;;;1.67;52.28;98661.69;4985452;28;20051;-62
2021/04/14 03:55:42;;;;;;;4.73;2.60;;;1.00;63.90;;;1.61;52.03;98665.47;4967769;28;20054;-62
2021/04/14 03:58:10;;;;;;;4.47;3.47;;;0.90;64.10;;;1.59;52.23;98659.44;4967501;28;20065;-62
2021/04/14 04:00:37;;;;;;;5.53;3.00;;;0.90;64.80;;;1.58;52.21;98669.09;4984720;28;20063;-63
2021/04/14 04:03:05;;;;;;;4.07;2.10;;;0.90;64.30;;;1.54;53.23;98662.31;4984438;28;20356;-62
2021/04/14 04:05:32;;;;;;;3.93;2.17;;;0.90;64.90;;;1.52;53.11;98663.31;4985169;28;20353;-62
2021/04/14 04:07:59;;;;;;;5.47;2.83;;;0.90;64.90;;;1.50;53.29;98663.38;4984521;28;20046;-62
2021/04/14 04:10:27;;;;;;;7.67;3.57;;;0.90;64.40;;;1.56;52.92;98667.47;4984999;28;20061;-62
2021/04/14 04:12:57;;;;;;;4.30;3.03;;;1.00;63.60;;;1.61;52.23;98662.84;4985064;28;20238;-62
2021/04/14 04:15:24;;;;;;;3.60;2.33;;;1.00;63.30;;;1.64;51.90;98673.16;4968272;28;20049;-62
2021/04/14 04:17:52;;;;;;;5.93;2.70;;;1.00;63.30;;;1.63;52.34;98668.00;4964819;28;20419;-62
2021/04/14 04:20:19;;;;;;;5.70;2.60;;;1.00;63.60;;;1.58;53.06;98670.88;4965031;29;20376;-62
2021/04/14 04:22:47;;;;;;;6.77;2.23;;;0.90;64.30;;;1.58;52.73;98669.09;4964594;28;20061;-62
2021/04/14 04:25:15;;;;;;;5.87;3.33;;;1.00;64.00;;;1.60;52.68;98670.78;4965383;29;20063;-62
2021/04/14 04:27:42;;;;;;;4.60;2.60;;;0.90;64.00;;;1.62;52.51;98674.19;4965176;29;20249;-62
2021/04/14 04:30:18;;;;;;;5.73;2.30;;;0.90;64.00;;;1.60;53.01;98676.03;4965738;29;20047;-62
2021/04/14 04:32:45;;;;;;;6.27;3.07;;;0.90;64.80;;;1.56;52.86;98670.09;4925335;29;20253;-44
2021/04/14 04:35:13;;;;;;;7.27;3.20;;;0.90;64.40;;;1.57;52.58;98669.16;4927019;29;20249;-45
2021/04/14 04:37:40;;;;;;;7.37;3.20;;;0.90;64.20;;;1.57;52.96;98670.03;4926418;29;20058;-43
2021/04/14 04:40:09;;;;;;;3.90;2.10;;;0.90;64.00;;;1.60;52.82;98679.50;4926929;29;20067;-42
2021/04/14 04:42:37;;;;;;;3.20;2.03;;;0.90;63.70;;;1.60;52.14;98682.13;4909635;29;20273;-45
2021/04/14 04:45:08;;;;;;;4.33;2.40;;;0.90;63.80;;;1.58;52.72;98674.34;4926672;29;20248;-42
2021/04/14 04:47:36;;;;;;;8.97;2.90;;;0.90;63.80;;;1.56;52.47;98685.84;4928311;29;20084;-42
2021/04/14 04:50:08;;;;;;;5.77;2.53;;;0.80;64.20;;;1.55;52.22;98682.38;4945176;29;20051;-44
2021/04/14 04:52:35;;;;;;;5.13;2.50;;;0.90;64.00;;;1.56;52.16;98693.72;4945125;29;20221;-44
2021/04/14 04:55:05;;;;;;;6.37;2.83;;;0.90;64.10;;;1.57;52.45;98692.78;4945187;29;20064;-45
2021/04/14 04:57:32;;;;;;;8.73;2.60;;;0.90;63.70;;;1.61;52.87;98690.84;4945375;29;20051;-47
2021/04/14 04:59:59;;;;;;;6.17;3.07;;;1.00;63.40;;;1.61;52.62;98691.72;4945583;29;20315;-46
2021/04/14 05:02:27;;;;;;;5.13;3.13;;;1.00;63.40;;;1.64;52.16;98693.31;4943055;29;20055;-44
2021/04/14 05:04:55;;;;;;;9.70;3.07;;;1.00;63.50;;;1.63;52.04;98692.50;4944724;29;20068;-44
2021/04/14 05:07:22;;;;;;;5.50;2.73;;;1.00;63.50;;;1.62;52.75;98689.94;4944944;29;20353;-47
2021/04/14 05:09:50;;;;;;;4.40;2.90;;;0.90;63.80;;;1.60;52.31;98690.00;4945500;29;20063;-44
2021/04/14 05:12:18;;;;;;;6.53;2.97;;;0.90;63.90;;;1.59;52.42;98696.19;4943870;29;20054;-44
2021/04/14 05:14:45;;;;;;;7.07;3.30;;;1.00;63.80;;;1.60;52.65;98695.25;4941604;29;20043;-44
2021/04/14 05:17:13;;;;;;;6.10;3.23;;;1.00;63.90;;;1.61;52.60;98693.47;4907836;29;20058;-42
2021/04/14 05:19:40;;;;;;;5.53;2.83;;;0.90;64.50;;;1.60;52.70;98694.41;4926062;29;20125;-43
2021/04/14 05:22:09;;;;;;;7.27;3.90;;;1.00;64.50;;;1.63;52.69;98696.88;4925128;29;20060;-42
2021/04/14 05:24:36;;;;;;;5.47;3.20;;;1.00;64.40;;;1.65;52.64;98690.63;4926191;29;20066;-41
2021/04/14 05:27:04;;;;;;;6.87;2.93;;;1.10;64.70;;;1.68;53.23;98698.31;4925618;29;20050;-41
2021/04/14 05:29:32;;;;;;;3.87;2.47;;;1.10;64.30;;;1.70;52.67;98701.72;4925790;29;20051;-41
2021/04/14 05:31:59;;;;;;;6.40;3.27;;;1.10;64.40;;;1.73;53.00;98704.19;4925642;29;20062;-41
2021/04/14 05:34:27;;;;;;;5.50;2.70;;;1.20;64.70;;;1.74;52.85;98705.88;4924933;29;20048;-41
2021/04/14 05:36:54;;;;;;;5.83;3.00;;;1.20;64.20;;;1.78;52.92;98709.19;4925213;29;20052;-41
2021/04/14 05:39:22;;;;;;;5.70;3.23;;;1.20;63.90;;;1.85;52.96;98710.59;4925526;29;20055;-46
2021/04/14 05:41:49;;;;;;;5.83;3.27;;;1.30;63.80;;;1.91;53.57;98712.88;4924931;29;20052;-45
2021/04/14 05:44:16;;;;;;;7.70;2.83;;;1.40;63.70;;;1.96;53.06;98710.88;4936834;29;20070;-41
2021/04/14 05:46:44;;;;;;;5.47;3.13;;;1.50;63.60;;;2.03;52.91;98710.53;4944503;29;20058;-40
2021/04/14 05:49:16;;;;;;;5.10;3.20;;;1.60;63.60;;;2.09;53.64;98713.66;4944588;29;20250;-39
2021/04/14 05:51:43;;;;;;;5.27;2.80;;;1.70;63.30;;;2.18;53.07;98720.22;4943132;29;20256;-41
2021/04/14 05:54:11;;;;;;;4.27;2.90;;;1.70;63.10;;;2.25;53.61;98720.75;4944489;29;20055;-42
2021/04/14 05:56:38;;;;;;;4.63;3.53;;;1.90;62.80;;;2.31;52.81;98723.06;4944820;29;20078;-41
2021/04/14 05:59:06;;;;;;;8.67;3.50;;;1.90;62.60;;;2.35;53.36;98720.16;4943282;29;20056;-41
2021/04/14 06:01:37;;;;;;;5.47;3.03;;;1.90;62.60;;;2.41;53.37;98721.63;4941933;29;20055;-40
2021/04/14 06:04:04;;;;;;;3.37;2.20;;;2.00;62.40;;;2.43;53.26;98718.91;4943916;29;20289;-41
2021/04/14 06:06:32;;;;;;;4.07;3.10;;;2.10;62.00;;;2.41;53.31;98720.78;4944365;29;20057;-40
2021/04/14 06:08:59;;;;;;;4.10;2.33;;;2.00;62.30;;;2.49;53.13;98722.03;4933233;29;20044;-41
2021/04/14 06:11:28;;;;;;;4.63;2.60;;;2.10;62.30;;;2.52;53.03;98724.50;4924163;29;20067;-40
2021/04/14 06:13:56;;;;;;;3.87;2.50;;;2.20;62.20;;;2.56;53.48;98720.78;4908555;29;20067;-40
2021/04/14 06:16:23;;;;;;;6.03;2.53;;;2.20;62.00;;;2.65;52.84;98721.19;4923878;29;20055;-41
2021/04/14 06:18:51;;;;;;;3.53;2.30;;;2.30;61.80;;;2.72;52.71;98733.06;4923567;29;20062;-41
2021/04/14 06:21:19;;;;;;;5.57;2.47;;;2.40;61.50;;;2.79;52.98;98730.94;4924966;29;20377;-42
2021/04/14 06:23:47;;;;;;;4.00;2.50;;;2.50;61.50;;;2.83;52.77;98735.09;4924205;29;20062;-40
2021/04/14 06:26:27;;;;;;;4.80;2.43;;;2.50;61.30;;;2.88;52.45;98731.28;4925135;29;20066;-41
2021/04/14 06:28:55;;;;;;;6.50;2.50;;;2.60;61.40;;;2.91;52.55;98730.28;4924252;29;20056;-41
2021/04/14 06:31:25;;;;;;;5.87;2.27;;;2.60;61.00;;;2.93;52.61;98731.88;4922664;29;20048;-40
2021/04/14 06:33:54;;;;;;;5.23;2.40;;;2.60;61.40;;;2.92;52.66;98732.78;4906128;29;20357;-40
2021/04/14 06:36:22;;;;;;;3.60;2.30;;;2.50;61.30;;;2.93;52.74;98734.50;4923797;29;20056;-42
2021/04/14 06:38:52;;;;;;;3.30;2.70;;;2.50;61.20;;;2.94;52.29;98738.81;4924543;29;20078;-41
2021/04/14 06:45:00;;;;;;;4.18;2.80;;;2.70;61.20;;;3.08;53.32;98745.06;4935947;29;20068;-41
2021/04/14 06:48:01;;;;;;;4.70;2.70;;;2.80;62.20;;;3.16;53.58;98742.88;4942636;29;20051;-41
2021/04/14 06:50:37;;;;;;;4.57;3.33;;;3.00;62.50;;;3.22;53.71;98742.53;4943587;29;20085;-41
2021/04/14 06:53:18;;;;;;;5.40;3.20;;;3.20;61.80;;;3.25;53.95;98736.22;4943807;29;20365;-40
2021/04/14 06:56:01;;;;;;;5.67;4.00;;;3.20;62.10;;;3.32;54.13;98740.22;4926364;29;20060;-41
2021/04/14 06:58:44;;;;;;;12.02;5.55;;;3.20;63.10;;;3.38;53.74;98744.28;4926659;29;20054;-41
2021/04/14 07:01:19;;;;;;;8.27;3.57;;;3.20;63.40;;;3.43;53.75;98743.06;4909682;29;20055;-41
2021/04/14 07:04:03;;;;;;;8.87;3.40;;;3.20;63.20;;;3.47;53.28;98746.34;4927575;29;20055;-41
2021/04/14 07:06:33;;;;;;;4.37;3.57;;;3.20;63.30;;;3.46;53.68;98734.13;4943541;29;20054;-41
2021/04/14 07:09:43;;;;;;;5.83;3.00;;;3.10;62.80;;;3.44;53.32;98744.75;4926206;29;20375;-41
2021/04/14 07:12:22;;;;;;;5.33;2.87;;;3.10;63.10;;;3.35;53.41;98742.66;4943598;29;20054;-41
2021/04/14 07:14:55;;;;;;;5.30;2.90;;;2.90;63.00;;;3.18;53.56;98745.41;4913847;29;20056;-41
2021/04/14 07:18:01;;;;;;;5.27;2.50;;;2.70;63.90;;;3.19;54.38;98747.13;4925149;29;20052;-42
2021/04/14 07:21:10;;;;;;;7.53;2.97;;;2.60;64.10;;;3.03;54.12;98745.34;4925781;29;20059;-42
2021/04/14 07:24:14;;;;;;;4.57;2.77;;;2.50;64.80;;;2.96;54.65;98750.09;4932740;29;20044;-41
2021/04/14 07:26:56;;;;;;;4.07;3.03;;;2.50;64.80;;;3.03;53.89;98736.63;4931455;29;20102;-41
2021/04/14 07:29:43;;;;;;;4.20;2.40;;;2.50;63.80;;;3.11;53.40;98735.22;4926899;29;20226;-41
2021/04/14 07:32:29;;;;;;;3.77;2.80;;;2.70;63.90;;;3.24;53.52;98729.25;4941854;29;20052;-41
2021/04/14 07:35:15;;;;;;;4.07;2.40;;;3.00;62.80;;;3.36;53.54;98731.19;4925593;29;20044;-41
2021/04/14 07:38:05;;;;;;;6.33;3.17;;;3.10;62.80;;;3.40;53.50;98737.97;4926048;29;20067;-41
2021/04/14 07:40:48;;;;;;;4.40;2.53;;;3.20;61.70;;;3.50;53.61;98738.28;4936943;29;20060;-42
2021/04/14 07:43:37;;;;;;;6.57;4.30;;;3.20;62.40;;;3.50;54.32;98735.66;4913436;29;20071;-41
2021/04/14 07:46:08;;;;;;;6.70;3.20;;;3.30;64.00;;;3.56;53.60;98735.28;4898389;29;20094;-41
2021/04/14 07:48:39;;;;;;;6.20;3.30;;;3.30;63.00;;;3.64;53.94;98737.47;4912154;29;20051;-41
2021/04/14 07:51:14;;;;;;;6.67;3.33;;;3.40;63.30;;;3.70;53.83;98735.34;4928513;29;20052;-41
2021/04/14 07:53:43;;;;;;;8.57;3.90;;;3.50;63.10;;;3.78;54.02;98729.59;4928606;29;20048;-41
2021/04/14 07:56:21;;;;;;;5.13;3.63;;;3.70;63.00;;;3.88;53.96;98735.16;4928567;29;20049;-41
2021/04/14 07:58:58;;;;;;;7.00;3.67;;;3.80;63.10;;;3.95;54.12;98731.19;4928217;29;20058;-41
2021/04/14 08:01:29;;;;;;;6.17;3.70;;;3.80;63.00;;;4.02;54.33;98727.25;4924317;29;20345;-41
2021/04/14 08:04:37;;;;;;;6.30;3.53;;;3.90;62.50;;;4.08;54.08;98733.94;4927566;29;20062;-41
2021/04/14 08:07:23;;;;;;;4.57;3.00;;;4.00;62.80;;;4.13;53.61;98726.63;4924835;29;20062;-41
2021/04/14 08:09:57;;;;;;;5.50;2.97;;;4.00;62.20;;;4.15;52.93;98722.09;4911999;29;20056;-41
2021/04/14 08:12:52;;;;;;;4.38;2.65;;;4.00;61.10;;;4.13;53.29;98730.09;4924522;29;20338;-42
2021/04/14 08:15:36;;;;;;;5.80;3.20;;;4.00;61.60;;;4.16;52.76;98731.69;4896855;29;20048;-41
2021/04/14 08:18:27;;;;;;;5.45;2.97;;;4.00;61.50;;;4.17;52.91;98722.84;4925354;29;20248;-42
2021/04/14 08:21:25;;;;;;;4.03;2.80;;;4.00;60.70;;;4.22;52.44;98727.81;4909322;29;20068;-41
2021/04/14 08:24:39;;;;;;;5.80;3.00;;;4.00;61.00;;;4.29;52.55;98727.34;4904681;29;20075;-42
2021/04/14 08:27:28;;;;;;;5.80;2.93;;;4.20;59.90;;;4.30;52.62;98729.06;4908909;29;20060;-41
2021/04/14 08:30:06;;;;;;;5.47;3.03;;;4.20;60.40;;;4.31;53.00;98719.34;4908385;29;20062;-41
2021/04/14 08:32:46;;;;;;;6.70;3.10;;;4.20;60.80;;;4.39;52.40;98714.44;4909129;29;20040;-42
2021/04/14 08:35:35;;;;;;;5.60;2.53;;;4.30;60.10;;;4.50;52.48;98716.41;4908187;29;20060;-41
2021/04/14 08:38:11;;;;;;;9.67;3.30;;;4.40;59.90;;;4.58;52.84;98716.78;4907603;29;20052;-42
2021/04/14 08:40:50;;;;;;;5.10;2.97;;;4.50;60.20;;;4.69;52.55;98718.72;4907460;29;20372;-42
2021/04/14 08:43:39;;;;;;;6.53;2.93;;;4.70;59.70;;;4.76;51.62;98719.19;4908778;29;20053;-42
2021/04/14 08:46:33;;;;;;;6.00;3.10;;;4.80;58.80;;;4.84;51.78;98711.63;4891857;29;20421;-43
2021/04/14 08:49:24;;;;;;;4.53;2.73;;;4.80;59.00;;;4.90;51.89;98714.72;4906598;29;20261;-42
2021/04/14 08:51:53;;;;;;;3.93;2.93;;;4.90;58.90;;;4.98;51.54;98714.19;4915230;29;20074;-42
2021/04/14 08:54:31;;;;;;;5.47;2.73;;;5.00;59.10;;;5.07;51.57;98713.59;4927245;29;20052;-42
2021/04/14 08:57:00;;;;;;;4.63;3.10;;;5.10;58.90;;;5.10;51.93;98710.78;4893466;29;20052;-42
2021/04/14 08:59:28;;;;;;;6.30;2.70;;;5.10;58.90;;;5.17;51.40;98703.28;4925088;29;20249;-42
2021/04/14 09:01:55;;;;;;;8.70;3.20;;;5.20;58.80;;;5.20;51.56;98707.53;4916745;29;20052;-41
2021/04/14 09:04:24;;;;;;;4.00;3.30;;;5.20;58.30;;;5.23;51.27;98702.88;4926216;29;20075;-42
2021/04/14 09:06:53;;;;;;;4.23;2.63;;;5.20;59.20;;;5.28;51.44;98707.88;4926432;29;20058;-41
2021/04/14 09:09:28;;;;;;;7.43;3.40;;;5.20;58.80;;;5.32;51.32;98702.25;4917810;29;20044;-42
2021/04/14 09:12:18;;;;;;;4.33;3.23;;;5.30;58.80;;;5.36;50.71;98700.28;4927345;29;20044;-42
2021/04/14 09:14:45;;;;;;;4.27;2.93;;;5.40;57.90;;;5.38;51.54;98697.53;4926230;29;20043;-42
2021/04/14 09:17:12;;;;;;;9.20;2.60;;;5.30;57.80;;;5.38;50.05;98695.72;4926102;29;20056;-42
2021/04/14 09:19:48;;;;;;;4.87;2.93;;;5.40;56.10;;;5.45;49.84;98694.38;4927471;29;20056;-43
2021/04/14 09:22:21;;;;;;;5.63;3.13;;;5.50;57.20;;;5.55;50.74;98688.47;4926014;29;20254;-42
2021/04/14 09:25:18;;;;;;;4.53;3.00;;;5.60;57.40;;;5.66;50.36;98691.22;4925968;29;20048;-42
2021/04/14 09:27:51;;;;;;;6.53;3.40;;;5.70;56.80;;;5.79;50.36;98694.72;4925765;29;20055;-42
2021/04/14 09:30:28;;;;;;;6.00;3.10;;;5.90;57.40;;;5.88;50.31;98687.97;4908511;29;20350;-43
2021/04/14 09:33:00;;;;;;;7.63;2.87;;;5.90;57.30;;;5.92;49.89;98687.63;4925587;29;20054;-42
2021/04/14 09:35:28;;;;;;;2.95;2.30;;;6.00;56.20;;;5.97;50.37;98686.50;4926374;29;20364;-45
2021/04/14 09:38:31;;;;;;;6.30;3.27;;;6.10;55.70;;;6.07;49.11;98692.84;4916469;29;20048;-43
2021/04/14 09:41:33;;;;;;;3.77;3.20;;;6.20;55.20;;;6.15;49.30;98685.22;4899604;29;20052;-43
2021/04/14 09:44:45;;;;;;;5.37;2.93;;;6.20;53.80;;;6.17;49.00;98680.66;4903508;29;20057;-42
2021/04/14 09:47:34;;;;;;;7.40;3.43;;;6.30;53.20;;;6.20;47.50;98679.59;4907230;29;20126;-43
2021/04/14 09:50:21;;;;;;;7.33;4.00;;;6.20;53.30;;;6.21;48.21;98673.38;4907660;29;20040;-45
2021/04/14 09:52:54;;;;;;;4.60;2.60;;;6.20;53.80;;;6.15;47.24;98679.09;4907063;29;20346;-45
2021/04/14 09:55:51;;;;;;;4.47;3.10;;;6.10;53.10;;;6.10;48.09;98674.13;4907659;29;20338;-44
2021/04/14 09:58:32;;;;;;;5.90;3.00;;;6.00;53.60;;;6.10;47.88;98669.66;4907106;29;20071;-45
2021/04/14 10:01:35;;;;;;;4.13;2.80;;;6.00;53.40;;;6.09;46.04;98667.16;4891107;29;20282;-43
2021/04/14 10:04:06;;;;;;;6.57;3.00;;;6.00;50.90;;;6.02;46.51;98665.88;4906672;29;20048;-44
2021/04/14 10:06:34;;;;;;;3.50;2.80;;;5.90;52.50;;;5.99;47.09;98663.44;4890724;29;20048;-43
2021/04/14 10:09:07;;;;;;;4.80;2.93;;;5.90;53.20;;;6.03;47.49;98665.78;4906879;29;20055;-42
2021/04/14 10:11:39;;;;;;;4.27;2.73;;;6.00;53.30;;;6.07;47.43;98651.38;4907669;29;20075;-44
2021/04/14 10:14:12;;;;;;;7.40;3.00;;;6.00;53.20;;;6.14;47.30;98645.66;4907581;29;20074;-50
2021/04/14 10:16:41;;;;;;;6.78;2.80;;;6.10;53.40;;;6.20;47.86;98647.88;4906884;29;20226;-42
2021/04/14 10:19:14;;;;;;;4.03;2.90;;;6.20;53.00;;;6.28;47.25;98638.44;4905940;29;20052;-46
2021/04/14 10:21:43;;;;;;;5.95;4.22;;;6.30;53.20;;;6.40;47.79;98636.72;4907730;29;20059;-47
2021/04/14 10:24:16;;;;;;;7.17;4.13;;;6.40;53.30;;;6.49;46.05;98633.41;4907035;29;20346;-44
2021/04/14 10:26:55;;;;;;;5.47;2.88;;;6.60;51.70;;;6.53;42.42;98628.72;4906086;29;20060;-46
2021/04/14 10:29:50;;;;;;;11.33;4.77;;;6.60;47.20;;;6.59;44.66;98624.78;4906005;29;20392;-45
2021/04/14 10:32:24;;;;;;;3.13;2.07;;;6.70;49.40;;;6.63;43.74;98634.19;4906190;29;20048;-47
2021/04/14 10:34:52;;;;;;;3.07;2.27;;;6.70;47.60;;;6.66;43.82;98626.03;4906948;29;20320;-49
2021/04/14 10:37:25;;;;;;;3.50;2.47;;;6.70;48.30;;;6.50;44.07;98629.78;4906573;29;20049;-45
2021/04/14 10:39:53;;;;;;;3.77;2.20;;;6.60;47.90;;;6.48;43.27;98618.47;4890434;29;20227;-46
2021/04/14 10:42:26;;;;;;;3.37;2.63;;;6.60;48.40;;;6.52;43.52;98616.47;4906273;29;20060;-46
2021/04/14 10:45:08;;;;;;;4.03;2.27;;;6.60;47.80;;;6.41;41.45;98625.16;4906837;29;20368;-50
2021/04/14 10:47:40;;;;;;;7.30;2.97;;;6.50;44.80;;;6.39;41.54;98605.09;4905297;29;20372;-45
2021/04/14 10:50:17;;;;;;;3.63;2.60;;;6.40;44.10;;;6.37;40.80;98612.28;4906026;29;20049;-46
2021/04/14 10:52:48;;;;;;;4.13;2.50;;;6.40;44.50;;;6.41;42.06;98605.81;4906777;29;20361;-47
2021/04/14 10:55:22;;;;;;;3.43;1.90;;;6.40;46.10;;;6.41;41.19;98604.00;4890778;29;20059;-49
2021/04/14 10:58:00;;;;;;;3.50;2.80;;;6.50;44.60;;;6.54;42.18;98597.84;4905465;29;20400;-43
2021/04/14 11:00:36;;;;;;;2.93;2.17;;;6.60;46.30;;;6.60;41.64;98600.03;4905760;29;20052;-46
2021/04/14 11:03:12;;;;;;;3.33;1.97;;;6.70;46.00;;;6.63;40.03;98591.84;4889764;29;20263;-47